Weather at White Chief Mine Airstrip

Public forecast

Using degrees Fahrenheit for public forecast. Weather courtesy of forecast.io.

Closest aviation weather report (METAR) to White Chief Mine Airstrip

Closest report is Laughlin Bullhead International Airport, 12.4 nm (23.0 km) NW. Retrieved 2021/06/13 10:35 UTC (0 seconds ago):

KIFP 131035Z AUTO 00000KT 10SM CLR 25/M10 A2972 RMK AO2

Closest aviation forecast (TAF) to White Chief Mine Airstrip

Closest forecast is Laughlin Bullhead International Airport, 12.4 nm (23.0 km) NW. Retrieved 2021/06/13 06:22 UTC (4 hours ago):

TAF KIFP 130520Z 1306/1406 VRB05KT P6SM FEW250 FM131900 19015G24KT P6SM SKC FM140300 17010KT P6SM SKC